sensor_id;sensor_type;location;lat;lon;timestamp;temperature;humidity
11132;DHT22;5620;53.570;9.718;2023-08-20T00:00:44;18.00;1.00
11132;DHT22;5620;53.570;9.718;2023-08-20T00:03:12;18.00;1.00
11132;DHT22;5620;53.570;9.718;2023-08-20T00:05:39;18.00;1.00
11132;DHT22;5620;53.570;9.718;2023-08-20T00:08:06;17.90;1.00
11132;DHT22;5620;53.570;9.718;2023-08-20T00:10:32;17.90;1.00
11132;DHT22;5620;53.570;9.718;2023-08-20T00:12:58;17.90;1.00
11132;DHT22;5620;53.570;9.718;2023-08-20T00:15:24;17.90;1.00
11132;DHT22;5620;53.570;9.718;2023-08-20T00:17:49;17.90;1.00
11132;DHT22;5620;53.570;9.718;2023-08-20T00:20:15;17.80;1.00
11132;DHT22;5620;53.570;9.718;2023-08-20T00:22:42;17.80;1.00
11132;DHT22;5620;53.570;9.718;2023-08-20T00:25:08;17.80;1.00
11132;DHT22;5620;53.570;9.718;2023-08-20T00:27:35;17.80;1.00
11132;DHT22;5620;53.570;9.718;2023-08-20T00:30:01;17.70;1.00
11132;DHT22;5620;53.570;9.718;2023-08-20T00:32:28;17.70;1.00
11132;DHT22;5620;53.570;9.718;2023-08-20T00:34:53;17.70;1.00
11132;DHT22;5620;53.570;9.718;2023-08-20T00:37:19;17.70;1.00
11132;DHT22;5620;53.570;9.718;2023-08-20T00:39:45;17.70;1.00
11132;DHT22;5620;53.570;9.718;2023-08-20T00:42:10;17.70;1.00
11132;DHT22;5620;53.570;9.718;2023-08-20T00:44:37;17.70;1.00
11132;DHT22;5620;53.570;9.718;2023-08-20T00:47:04;17.60;1.00
11132;DHT22;5620;53.570;9.718;2023-08-20T00:49:31;17.60;1.00
11132;DHT22;5620;53.570;9.718;2023-08-20T00:51:57;17.50;1.00
11132;DHT22;5620;53.570;9.718;2023-08-20T00:54:23;17.50;1.00
11132;DHT22;5620;53.570;9.718;2023-08-20T00:56:50;17.50;1.00
11132;DHT22;5620;53.570;9.718;2023-08-20T00:59:16;17.40;1.00
11132;DHT22;5620;53.570;9.718;2023-08-20T01:01:41;17.40;1.00
11132;DHT22;5620;53.570;9.718;2023-08-20T01:04:08;17.30;1.00
11132;DHT22;5620;53.570;9.718;2023-08-20T01:07:14;17.30;1.00
11132;DHT22;5620;53.570;9.718;2023-08-20T01:12:41;17.20;1.00
11132;DHT22;5620;53.570;9.718;2023-08-20T01:15:08;17.10;1.00
11132;DHT22;5620;53.570;9.718;2023-08-20T01:17:35;17.10;1.00
11132;DHT22;5620;53.570;9.718;2023-08-20T01:20:00;17.10;1.00
11132;DHT22;5620;53.570;9.718;2023-08-20T01:25:28;17.10;1.00
11132;DHT22;5620;53.570;9.718;2023-08-20T01:28:46;17.10;1.00
11132;DHT22;5620;53.570;9.718;2023-08-20T01:30:49;17.10;1.00
11132;DHT22;5620;53.570;9.718;2023-08-20T01:33:15;17.20;1.00
11132;DHT22;5620;53.570;9.718;2023-08-20T01:35:41;17.20;1.00
11132;DHT22;5620;53.570;9.718;2023-08-20T01:38:07;17.20;1.00
11132;DHT22;5620;53.570;9.718;2023-08-20T01:40:32;17.20;1.00
11132;DHT22;5620;53.570;9.718;2023-08-20T01:42:59;17.20;1.00
11132;DHT22;5620;53.570;9.718;2023-08-20T01:45:24;17.30;1.00
11132;DHT22;5620;53.570;9.718;2023-08-20T01:47:50;17.40;1.00
11132;DHT22;5620;53.570;9.718;2023-08-20T01:50:16;17.50;1.00
11132;DHT22;5620;53.570;9.718;2023-08-20T01:52:41;17.60;1.00
11132;DHT22;5620;53.570;9.718;2023-08-20T01:55:08;17.70;1.00
11132;DHT22;5620;53.570;9.718;2023-08-20T01:57:34;17.80;1.00
11132;DHT22;5620;53.570;9.718;2023-08-20T01:59:59;17.80;1.00
11132;DHT22;5620;53.570;9.718;2023-08-20T02:02:25;17.80;1.00
11132;DHT22;5620;53.570;9.718;2023-08-20T02:04:52;17.90;1.00
11132;DHT22;5620;53.570;9.718;2023-08-20T02:07:17;18.00;1.00
11132;DHT22;5620;53.570;9.718;2023-08-20T02:09:43;18.00;1.00
11132;DHT22;5620;53.570;9.718;2023-08-20T02:12:08;18.00;1.00
11132;DHT22;5620;53.570;9.718;2023-08-20T02:14:35;18.00;1.00
11132;DHT22;5620;53.570;9.718;2023-08-20T02:17:05;18.10;1.00
11132;DHT22;5620;53.570;9.718;2023-08-20T02:19:30;18.10;1.00
11132;DHT22;5620;53.570;9.718;2023-08-20T02:21:56;18.10;1.00
11132;DHT22;5620;53.570;9.718;2023-08-20T02:24:21;18.10;1.00
11132;DHT22;5620;53.570;9.718;2023-08-20T02:26:47;18.10;1.00
11132;DHT22;5620;53.570;9.718;2023-08-20T02:29:12;18.10;1.00
11132;DHT22;5620;53.570;9.718;2023-08-20T02:31:39;18.20;1.00
11132;DHT22;5620;53.570;9.718;2023-08-20T02:34:05;18.20;1.00
11132;DHT22;5620;53.570;9.718;2023-08-20T02:36:30;18.20;1.00
11132;DHT22;5620;53.570;9.718;2023-08-20T02:38:56;18.20;1.00
11132;DHT22;5620;53.570;9.718;2023-08-20T02:41:21;18.30;1.00
11132;DHT22;5620;53.570;9.718;2023-08-20T02:43:47;18.30;1.00
11132;DHT22;5620;53.570;9.718;2023-08-20T02:46:13;18.20;1.00
11132;DHT22;5620;53.570;9.718;2023-08-20T02:48:40;18.30;1.00
11132;DHT22;5620;53.570;9.718;2023-08-20T02:51:07;18.30;1.00
11132;DHT22;5620;53.570;9.718;2023-08-20T02:53:32;18.30;1.00
11132;DHT22;5620;53.570;9.718;2023-08-20T02:55:58;18.30;1.00
11132;DHT22;5620;53.570;9.718;2023-08-20T02:58:24;18.30;1.00
11132;DHT22;5620;53.570;9.718;2023-08-20T03:00:51;18.30;1.00
11132;DHT22;5620;53.570;9.718;2023-08-20T03:03:17;18.30;1.00
11132;DHT22;5620;53.570;9.718;2023-08-20T03:05:43;18.30;1.00
11132;DHT22;5620;53.570;9.718;2023-08-20T03:08:08;18.30;1.00
11132;DHT22;5620;53.570;9.718;2023-08-20T03:10:34;18.20;1.00
11132;DHT22;5620;53.570;9.718;2023-08-20T03:13:02;18.20;1.00
11132;DHT22;5620;53.570;9.718;2023-08-20T03:15:28;18.20;1.00
11132;DHT22;5620;53.570;9.718;2023-08-20T03:17:54;18.10;1.00
11132;DHT22;5620;53.570;9.718;2023-08-20T03:20:20;18.10;1.00
11132;DHT22;5620;53.570;9.718;2023-08-20T03:22:46;18.10;1.00
11132;DHT22;5620;53.570;9.718;2023-08-20T03:25:12;18.10;1.00
11132;DHT22;5620;53.570;9.718;2023-08-20T03:27:37;18.10;1.00
11132;DHT22;5620;53.570;9.718;2023-08-20T03:30:04;18.10;1.00
11132;DHT22;5620;53.570;9.718;2023-08-20T03:32:30;18.10;1.00
11132;DHT22;5620;53.570;9.718;2023-08-20T03:34:55;18.10;1.00
11132;DHT22;5620;53.570;9.718;2023-08-20T03:37:22;18.10;1.00
11132;DHT22;5620;53.570;9.718;2023-08-20T03:39:47;18.10;1.00
11132;DHT22;5620;53.570;9.718;2023-08-20T03:42:13;18.10;1.00
11132;DHT22;5620;53.570;9.718;2023-08-20T03:44:39;18.20;1.00
11132;DHT22;5620;53.570;9.718;2023-08-20T03:47:06;18.20;1.00
11132;DHT22;5620;53.570;9.718;2023-08-20T03:49:31;18.20;1.00
11132;DHT22;5620;53.570;9.718;2023-08-20T03:51:57;18.10;1.00
11132;DHT22;5620;53.570;9.718;2023-08-20T03:54:23;18.00;1.00
11132;DHT22;5620;53.570;9.718;2023-08-20T03:56:49;17.90;1.00
11132;DHT22;5620;53.570;9.718;2023-08-20T03:59:14;17.90;1.00
11132;DHT22;5620;53.570;9.718;2023-08-20T04:01:40;17.90;1.00
11132;DHT22;5620;53.570;9.718;2023-08-20T04:04:05;17.80;1.00
11132;DHT22;5620;53.570;9.718;2023-08-20T04:06:31;17.80;1.00
11132;DHT22;5620;53.570;9.718;2023-08-20T04:08:56;17.80;1.00
11132;DHT22;5620;53.570;9.718;2023-08-20T04:11:23;17.80;1.00
11132;DHT22;5620;53.570;9.718;2023-08-20T04:13:49;17.80;1.00
11132;DHT22;5620;53.570;9.718;2023-08-20T04:16:15;17.80;1.00
11132;DHT22;5620;53.570;9.718;2023-08-20T04:18:40;17.70;1.00
11132;DHT22;5620;53.570;9.718;2023-08-20T04:21:07;17.70;1.00
11132;DHT22;5620;53.570;9.718;2023-08-20T04:23:33;17.70;1.00
11132;DHT22;5620;53.570;9.718;2023-08-20T04:25:59;17.70;1.00
11132;DHT22;5620;53.570;9.718;2023-08-20T04:28:24;17.70;1.00
11132;DHT22;5620;53.570;9.718;2023-08-20T04:30:52;17.80;1.00
11132;DHT22;5620;53.570;9.718;2023-08-20T04:33:18;17.80;1.00
11132;DHT22;5620;53.570;9.718;2023-08-20T04:35:43;17.90;1.00
11132;DHT22;5620;53.570;9.718;2023-08-20T04:38:09;17.90;1.00
11132;DHT22;5620;53.570;9.718;2023-08-20T04:40:34;17.90;1.00
11132;DHT22;5620;53.570;9.718;2023-08-20T04:43:00;17.90;1.00
11132;DHT22;5620;53.570;9.718;2023-08-20T04:45:25;18.00;1.00
11132;DHT22;5620;53.570;9.718;2023-08-20T04:47:51;18.10;1.00
11132;DHT22;5620;53.570;9.718;2023-08-20T04:50:16;18.20;1.00
11132;DHT22;5620;53.570;9.718;2023-08-20T04:52:42;18.30;1.00
11132;DHT22;5620;53.570;9.718;2023-08-20T04:55:09;18.50;1.00
11132;DHT22;5620;53.570;9.718;2023-08-20T04:57:36;18.60;1.00
11132;DHT22;5620;53.570;9.718;2023-08-20T05:00:02;18.70;1.00
11132;DHT22;5620;53.570;9.718;2023-08-20T05:02:27;18.80;1.00
11132;DHT22;5620;53.570;9.718;2023-08-20T05:04:53;18.90;1.00
11132;DHT22;5620;53.570;9.718;2023-08-20T05:07:18;18.90;1.00
11132;DHT22;5620;53.570;9.718;2023-08-20T05:09:44;18.90;99.90
11132;DHT22;5620;53.570;9.718;2023-08-20T05:12:10;19.00;99.90
11132;DHT22;5620;53.570;9.718;2023-08-20T05:14:35;19.00;99.90
11132;DHT22;5620;53.570;9.718;2023-08-20T05:17:01;19.00;99.90
11132;DHT22;5620;53.570;9.718;2023-08-20T05:19:27;19.10;99.90
11132;DHT22;5620;53.570;9.718;2023-08-20T05:21:53;19.20;1.00
11132;DHT22;5620;53.570;9.718;2023-08-20T05:24:19;19.20;99.90
11132;DHT22;5620;53.570;9.718;2023-08-20T05:26:44;19.30;99.90
11132;DHT22;5620;53.570;9.718;2023-08-20T05:29:10;19.30;99.90
11132;DHT22;5620;53.570;9.718;2023-08-20T05:31:35;19.50;99.90
11132;DHT22;5620;53.570;9.718;2023-08-20T05:34:01;19.60;99.90
11132;DHT22;5620;53.570;9.718;2023-08-20T05:36:26;19.70;99.90
11132;DHT22;5620;53.570;9.718;2023-08-20T05:38:52;19.70;99.90
11132;DHT22;5620;53.570;9.718;2023-08-20T05:41:17;19.70;99.90
11132;DHT22;5620;53.570;9.718;2023-08-20T05:43:43;19.70;99.90
11132;DHT22;5620;53.570;9.718;2023-08-20T05:46:10;19.80;99.90
11132;DHT22;5620;53.570;9.718;2023-08-20T05:48:37;19.90;99.90
11132;DHT22;5620;53.570;9.718;2023-08-20T05:51:02;19.90;1.00
11132;DHT22;5620;53.570;9.718;2023-08-20T05:53:28;20.00;1.00
11132;DHT22;5620;53.570;9.718;2023-08-20T05:55:53;20.00;1.00
11132;DHT22;5620;53.570;9.718;2023-08-20T05:58:19;20.00;1.00
11132;DHT22;5620;53.570;9.718;2023-08-20T06:00:44;20.10;1.00
11132;DHT22;5620;53.570;9.718;2023-08-20T06:03:10;20.30;1.00
11132;DHT22;5620;53.570;9.718;2023-08-20T06:05:37;20.40;1.00
11132;DHT22;5620;53.570;9.718;2023-08-20T06:08:02;20.50;1.00
11132;DHT22;5620;53.570;9.718;2023-08-20T06:10:28;20.60;99.90
11132;DHT22;5620;53.570;9.718;2023-08-20T07:01:37;20.70;99.90
11132;DHT22;5620;53.570;9.718;2023-08-20T07:04:05;22.80;41.80
11132;DHT22;5620;53.570;9.718;2023-08-20T07:06:30;23.10;1.00
11132;DHT22;5620;53.570;9.718;2023-08-20T07:08:56;23.30;99.90
11132;DHT22;5620;53.570;9.718;2023-08-20T07:11:21;23.50;72.40
11132;DHT22;5620;53.570;9.718;2023-08-20T07:13:47;23.50;97.00
11132;DHT22;5620;53.570;9.718;2023-08-20T07:16:12;23.50;1.00
11132;DHT22;5620;53.570;9.718;2023-08-20T07:18:38;23.40;92.10
11132;DHT22;5620;53.570;9.718;2023-08-20T07:21:04;23.40;43.80
11132;DHT22;5620;53.570;9.718;2023-08-20T07:23:29;23.30;1.00
11132;DHT22;5620;53.570;9.718;2023-08-20T07:26:09;23.10;1.00
11132;DHT22;5620;53.570;9.718;2023-08-20T07:28:35;23.00;1.00
11132;DHT22;5620;53.570;9.718;2023-08-20T07:31:01;23.10;99.90
11132;DHT22;5620;53.570;9.718;2023-08-20T07:33:26;23.40;99.90
11132;DHT22;5620;53.570;9.718;2023-08-20T07:35:52;23.80;1.00
11132;DHT22;5620;53.570;9.718;2023-08-20T07:38:19;23.90;1.00
11132;DHT22;5620;53.570;9.718;2023-08-20T07:40:44;23.90;99.90
11132;DHT22;5620;53.570;9.718;2023-08-20T07:43:10;23.60;99.90
11132;DHT22;5620;53.570;9.718;2023-08-20T07:45:36;23.00;99.90
11132;DHT22;5620;53.570;9.718;2023-08-20T07:48:01;22.70;99.90
11132;DHT22;5620;53.570;9.718;2023-08-20T07:50:27;22.40;99.90
11132;DHT22;5620;53.570;9.718;2023-08-20T07:52:52;22.20;99.90
11132;DHT22;5620;53.570;9.718;2023-08-20T07:55:18;22.30;99.90
11132;DHT22;5620;53.570;9.718;2023-08-20T07:57:45;22.40;99.90
11132;DHT22;5620;53.570;9.718;2023-08-20T08:00:11;22.40;99.90
11132;DHT22;5620;53.570;9.718;2023-08-20T08:02:37;22.50;99.90
11132;DHT22;5620;53.570;9.718;2023-08-20T08:05:02;22.40;99.90
11132;DHT22;5620;53.570;9.718;2023-08-20T08:07:28;22.20;99.90
11132;DHT22;5620;53.570;9.718;2023-08-20T08:09:54;22.00;99.90
11132;DHT22;5620;53.570;9.718;2023-08-20T08:12:19;21.90;99.90
11132;DHT22;5620;53.570;9.718;2023-08-20T08:14:45;22.00;99.90
11132;DHT22;5620;53.570;9.718;2023-08-20T08:17:10;22.10;99.90
11132;DHT22;5620;53.570;9.718;2023-08-20T08:19:37;22.10;99.90
11132;DHT22;5620;53.570;9.718;2023-08-20T08:22:03;22.00;99.90
11132;DHT22;5620;53.570;9.718;2023-08-20T08:24:28;22.00;99.90
11132;DHT22;5620;53.570;9.718;2023-08-20T08:26:54;22.00;99.90
11132;DHT22;5620;53.570;9.718;2023-08-20T08:29:21;22.10;99.90
11132;DHT22;5620;53.570;9.718;2023-08-20T08:31:47;22.20;99.90
11132;DHT22;5620;53.570;9.718;2023-08-20T08:34:12;22.20;99.90
11132;DHT22;5620;53.570;9.718;2023-08-20T08:36:39;22.20;99.90
11132;DHT22;5620;53.570;9.718;2023-08-20T08:39:05;22.20;99.90
11132;DHT22;5620;53.570;9.718;2023-08-20T08:41:32;22.20;99.90
11132;DHT22;5620;53.570;9.718;2023-08-20T08:44:00;22.40;99.90
11132;DHT22;5620;53.570;9.718;2023-08-20T08:46:26;22.50;99.90
11132;DHT22;5620;53.570;9.718;2023-08-20T08:48:52;22.50;82.40
11132;DHT22;5620;53.570;9.718;2023-08-20T08:51:18;22.60;60.60
11132;DHT22;5620;53.570;9.718;2023-08-20T08:53:45;22.60;26.00
11132;DHT22;5620;53.570;9.718;2023-08-20T08:56:13;22.60;1.00
11132;DHT22;5620;53.570;9.718;2023-08-20T08:58:38;22.70;1.00
11132;DHT22;5620;53.570;9.718;2023-08-20T09:01:05;22.80;1.00
11132;DHT22;5620;53.570;9.718;2023-08-20T09:03:30;22.90;1.00
11132;DHT22;5620;53.570;9.718;2023-08-20T09:05:58;22.90;1.00
11132;DHT22;5620;53.570;9.718;2023-08-20T09:08:28;23.00;1.00
11132;DHT22;5620;53.570;9.718;2023-08-20T09:10:56;23.10;1.00
11132;DHT22;5620;53.570;9.718;2023-08-20T09:13:33;23.30;99.90
11132;DHT22;5620;53.570;9.718;2023-08-20T09:15:59;23.40;99.90
11132;DHT22;5620;53.570;9.718;2023-08-20T09:18:28;23.40;99.90
11132;DHT22;5620;53.570;9.718;2023-08-20T09:20:54;23.50;99.90
11132;DHT22;5620;53.570;9.718;2023-08-20T09:23:21;23.60;99.90
11132;DHT22;5620;53.570;9.718;2023-08-20T09:25:46;23.70;99.90
11132;DHT22;5620;53.570;9.718;2023-08-20T09:28:13;23.90;99.90
11132;DHT22;5620;53.570;9.718;2023-08-20T09:30:39;23.90;99.90
11132;DHT22;5620;53.570;9.718;2023-08-20T09:33:25;23.90;63.90
11132;DHT22;5620;53.570;9.718;2023-08-20T09:35:51;23.90;20.50
11132;DHT22;5620;53.570;9.718;2023-08-20T09:43:15;24.00;1.00
11132;DHT22;5620;53.570;9.718;2023-08-20T10:02:59;24.50;1.00
11132;DHT22;5620;53.570;9.718;2023-08-20T10:05:26;24.90;99.90
11132;DHT22;5620;53.570;9.718;2023-08-20T10:10:19;24.90;99.90
11132;DHT22;5620;53.570;9.718;2023-08-20T10:15:14;25.30;99.90
11132;DHT22;5620;53.570;9.718;2023-08-20T10:33:03;25.80;99.90
11132;DHT22;5620;53.570;9.718;2023-08-20T10:35:47;26.40;99.90
11132;DHT22;5620;53.570;9.718;2023-08-20T10:38:17;26.30;99.90
11132;DHT22;5620;53.570;9.718;2023-08-20T10:50:56;27.20;99.90
11132;DHT22;5620;53.570;9.718;2023-08-20T10:53:24;27.80;83.40
11132;DHT22;5620;53.570;9.718;2023-08-20T10:55:50;28.60;75.50
11132;DHT22;5620;53.570;9.718;2023-08-20T10:58:16;29.00;58.80
11132;DHT22;5620;53.570;9.718;2023-08-20T11:15:21;29.20;1.00
11132;DHT22;5620;53.570;9.718;2023-08-20T11:17:47;30.80;1.00
11132;DHT22;5620;53.570;9.718;2023-08-20T11:20:16;31.30;1.00
11132;DHT22;5620;53.570;9.718;2023-08-20T11:22:42;30.80;1.00
11132;DHT22;5620;53.570;9.718;2023-08-20T11:25:11;31.10;1.00
11132;DHT22;5620;53.570;9.718;2023-08-20T11:27:41;32.20;1.00
11132;DHT22;5620;53.570;9.718;2023-08-20T11:30:07;32.70;1.00
11132;DHT22;5620;53.570;9.718;2023-08-20T11:32:33;32.60;1.00
11132;DHT22;5620;53.570;9.718;2023-08-20T11:35:00;32.80;1.00
11132;DHT22;5620;53.570;9.718;2023-08-20T11:37:27;34.10;1.00
11132;DHT22;5620;53.570;9.718;2023-08-20T11:39:52;33.70;1.00
11132;DHT22;5620;53.570;9.718;2023-08-20T11:42:19;33.10;1.00
11132;DHT22;5620;53.570;9.718;2023-08-20T11:44:46;32.40;1.00
11132;DHT22;5620;53.570;9.718;2023-08-20T11:47:16;32.20;1.00
11132;DHT22;5620;53.570;9.718;2023-08-20T11:49:42;33.20;1.00
11132;DHT22;5620;53.570;9.718;2023-08-20T11:52:07;33.60;1.00
11132;DHT22;5620;53.570;9.718;2023-08-20T11:54:33;33.50;1.00
11132;DHT22;5620;53.570;9.718;2023-08-20T11:57:03;33.40;1.00
11132;DHT22;5620;53.570;9.718;2023-08-20T11:59:29;35.30;1.00
11132;DHT22;5620;53.570;9.718;2023-08-20T12:01:58;35.70;1.00
11132;DHT22;5620;53.570;9.718;2023-08-20T12:04:27;35.30;1.00
11132;DHT22;5620;53.570;9.718;2023-08-20T12:07:03;36.40;1.00
11132;DHT22;5620;53.570;9.718;2023-08-20T12:09:32;38.00;1.00
11132;DHT22;5620;53.570;9.718;2023-08-20T12:11:59;39.50;1.00
11132;DHT22;5620;53.570;9.718;2023-08-20T12:14:24;39.10;99.90
11132;DHT22;5620;53.570;9.718;2023-08-20T12:16:52;39.20;99.90
11132;DHT22;5620;53.570;9.718;2023-08-20T12:19:19;39.40;99.90
11132;DHT22;5620;53.570;9.718;2023-08-20T12:21:45;38.50;99.90
11132;DHT22;5620;53.570;9.718;2023-08-20T12:24:11;37.10;99.90
11132;DHT22;5620;53.570;9.718;2023-08-20T12:26:37;35.90;1.00
11132;DHT22;5620;53.570;9.718;2023-08-20T12:29:05;34.30;1.00
11132;DHT22;5620;53.570;9.718;2023-08-20T12:31:35;33.00;1.00
11132;DHT22;5620;53.570;9.718;2023-08-20T12:34:01;32.10;1.00
11132;DHT22;5620;53.570;9.718;2023-08-20T12:36:28;31.70;1.00
11132;DHT22;5620;53.570;9.718;2023-08-20T12:38:54;32.40;1.00
11132;DHT22;5620;53.570;9.718;2023-08-20T12:41:21;32.20;1.00
11132;DHT22;5620;53.570;9.718;2023-08-20T12:43:47;32.40;1.00
11132;DHT22;5620;53.570;9.718;2023-08-20T12:46:13;33.10;1.00
11132;DHT22;5620;53.570;9.718;2023-08-20T12:48:38;33.00;1.00
11132;DHT22;5620;53.570;9.718;2023-08-20T12:51:04;32.40;1.00
11132;DHT22;5620;53.570;9.718;2023-08-20T12:53:30;32.80;1.00
11132;DHT22;5620;53.570;9.718;2023-08-20T12:55:56;32.60;1.00
11132;DHT22;5620;53.570;9.718;2023-08-20T12:58:22;32.50;1.00
11132;DHT22;5620;53.570;9.718;2023-08-20T13:00:47;32.10;1.00
11132;DHT22;5620;53.570;9.718;2023-08-20T13:03:14;32.40;1.00
11132;DHT22;5620;53.570;9.718;2023-08-20T13:05:40;33.00;1.00
11132;DHT22;5620;53.570;9.718;2023-08-20T13:08:06;34.50;1.00
11132;DHT22;5620;53.570;9.718;2023-08-20T13:10:32;36.40;1.00
11132;DHT22;5620;53.570;9.718;2023-08-20T13:13:01;36.90;99.90
11132;DHT22;5620;53.570;9.718;2023-08-20T13:15:27;37.80;99.90
11132;DHT22;5620;53.570;9.718;2023-08-20T13:17:53;37.30;99.90
11132;DHT22;5620;53.570;9.718;2023-08-20T13:20:19;36.30;99.90
11132;DHT22;5620;53.570;9.718;2023-08-20T13:22:45;35.40;1.00
11132;DHT22;5620;53.570;9.718;2023-08-20T13:25:10;34.70;1.00
11132;DHT22;5620;53.570;9.718;2023-08-20T13:27:36;34.70;1.00
11132;DHT22;5620;53.570;9.718;2023-08-20T13:30:01;37.00;99.90
11132;DHT22;5620;53.570;9.718;2023-08-20T13:32:27;38.60;99.90
11132;DHT22;5620;53.570;9.718;2023-08-20T13:34:52;38.20;99.90
11132;DHT22;5620;53.570;9.718;2023-08-20T13:37:18;37.10;99.90
11132;DHT22;5620;53.570;9.718;2023-08-20T13:39:43;36.00;99.90
11132;DHT22;5620;53.570;9.718;2023-08-20T13:42:09;35.70;99.90
11132;DHT22;5620;53.570;9.718;2023-08-20T13:44:35;35.50;1.00
11132;DHT22;5620;53.570;9.718;2023-08-20T13:47:00;37.20;99.90
11132;DHT22;5620;53.570;9.718;2023-08-20T13:49:26;39.20;99.90
11132;DHT22;5620;53.570;9.718;2023-08-20T13:51:51;41.10;99.90
11132;DHT22;5620;53.570;9.718;2023-08-20T13:54:17;41.90;99.90
11132;DHT22;5620;53.570;9.718;2023-08-20T13:56:43;41.60;99.90
11132;DHT22;5620;53.570;9.718;2023-08-20T13:59:11;39.80;99.90
11132;DHT22;5620;53.570;9.718;2023-08-20T14:01:37;38.30;99.90
11132;DHT22;5620;53.570;9.718;2023-08-20T14:04:02;37.40;99.90
11132;DHT22;5620;53.570;9.718;2023-08-20T14:06:29;37.60;99.90
11132;DHT22;5620;53.570;9.718;2023-08-20T14:08:54;36.80;99.90
11132;DHT22;5620;53.570;9.718;2023-08-20T14:11:21;36.00;99.90
11132;DHT22;5620;53.570;9.718;2023-08-20T14:13:50;37.20;1.00
11132;DHT22;5620;53.570;9.718;2023-08-20T14:16:15;37.70;99.90
11132;DHT22;5620;53.570;9.718;2023-08-20T14:18:41;39.40;99.90
11132;DHT22;5620;53.570;9.718;2023-08-20T14:21:06;41.30;99.90
11132;DHT22;5620;53.570;9.718;2023-08-20T14:23:32;43.00;99.90
11132;DHT22;5620;53.570;9.718;2023-08-20T14:25:58;41.70;99.90
11132;DHT22;5620;53.570;9.718;2023-08-20T14:28:24;39.70;99.90
11132;DHT22;5620;53.570;9.718;2023-08-20T14:30:50;40.00;99.90
11132;DHT22;5620;53.570;9.718;2023-08-20T14:33:16;42.80;99.90
11132;DHT22;5620;53.570;9.718;2023-08-20T14:35:41;44.90;99.90
11132;DHT22;5620;53.570;9.718;2023-08-20T14:38:07;43.70;99.90
11132;DHT22;5620;53.570;9.718;2023-08-20T14:40:32;41.80;99.90
11132;DHT22;5620;53.570;9.718;2023-08-20T14:43:01;40.70;99.90
11132;DHT22;5620;53.570;9.718;2023-08-20T14:45:27;43.10;99.90
11132;DHT22;5620;53.570;9.718;2023-08-20T14:47:52;45.20;99.90
11132;DHT22;5620;53.570;9.718;2023-08-20T14:50:18;44.80;99.90
11132;DHT22;5620;53.570;9.718;2023-08-20T14:52:43;45.80;99.90
11132;DHT22;5620;53.570;9.718;2023-08-20T14:55:09;47.50;99.90
11132;DHT22;5620;53.570;9.718;2023-08-20T14:57:34;48.50;99.90
11132;DHT22;5620;53.570;9.718;2023-08-20T15:00:00;47.10;99.90
11132;DHT22;5620;53.570;9.718;2023-08-20T15:02:26;46.20;99.90
11132;DHT22;5620;53.570;9.718;2023-08-20T15:04:53;44.80;99.90
11132;DHT22;5620;53.570;9.718;2023-08-20T15:07:19;44.10;99.90
11132;DHT22;5620;53.570;9.718;2023-08-20T15:09:44;44.50;99.90
11132;DHT22;5620;53.570;9.718;2023-08-20T15:12:10;45.50;99.90
11132;DHT22;5620;53.570;9.718;2023-08-20T15:14:36;45.70;99.90
11132;DHT22;5620;53.570;9.718;2023-08-20T15:17:02;46.60;99.90
11132;DHT22;5620;53.570;9.718;2023-08-20T15:19:27;47.00;99.90
11132;DHT22;5620;53.570;9.718;2023-08-20T15:21:53;45.20;99.90
11132;DHT22;5620;53.570;9.718;2023-08-20T15:24:19;46.40;99.90
11132;DHT22;5620;53.570;9.718;2023-08-20T15:26:45;47.80;99.90
11132;DHT22;5620;53.570;9.718;2023-08-20T16:00:51;47.90;99.90
11132;DHT22;5620;53.570;9.718;2023-08-20T16:03:16;49.00;99.90
11132;DHT22;5620;53.570;9.718;2023-08-20T16:05:42;49.00;99.90
11132;DHT22;5620;53.570;9.718;2023-08-20T16:08:07;49.00;99.90
11132;DHT22;5620;53.570;9.718;2023-08-20T16:10:33;49.30;99.90
11132;DHT22;5620;53.570;9.718;2023-08-20T16:12:58;49.60;99.90
11132;DHT22;5620;53.570;9.718;2023-08-20T16:15:24;49.60;99.90
11132;DHT22;5620;53.570;9.718;2023-08-20T16:17:50;49.70;99.90
11132;DHT22;5620;53.570;9.718;2023-08-20T16:20:16;49.80;99.90
11132;DHT22;5620;53.570;9.718;2023-08-20T16:22:41;49.80;99.90
11132;DHT22;5620;53.570;9.718;2023-08-20T16:25:07;49.60;99.90
11132;DHT22;5620;53.570;9.718;2023-08-20T16:27:32;49.20;99.90
11132;DHT22;5620;53.570;9.718;2023-08-20T16:29:58;49.70;99.90
11132;DHT22;5620;53.570;9.718;2023-08-20T16:32:24;49.60;99.90
11132;DHT22;5620;53.570;9.718;2023-08-20T16:34:49;49.50;99.90
11132;DHT22;5620;53.570;9.718;2023-08-20T16:37:15;49.30;99.90
11132;DHT22;5620;53.570;9.718;2023-08-20T16:39:41;49.20;99.90
11132;DHT22;5620;53.570;9.718;2023-08-20T16:42:08;49.00;99.90
11132;DHT22;5620;53.570;9.718;2023-08-20T16:44:33;48.60;99.90
11132;DHT22;5620;53.570;9.718;2023-08-20T16:46:59;48.30;99.90
11132;DHT22;5620;53.570;9.718;2023-08-20T16:49:25;48.00;99.90
11132;DHT22;5620;53.570;9.718;2023-08-20T16:51:50;47.60;99.90
11132;DHT22;5620;53.570;9.718;2023-08-20T16:54:16;47.30;99.90
11132;DHT22;5620;53.570;9.718;2023-08-20T16:56:41;47.20;99.90
11132;DHT22;5620;53.570;9.718;2023-08-20T16:59:07;46.90;99.90
11132;DHT22;5620;53.570;9.718;2023-08-20T17:01:32;46.20;99.90
11132;DHT22;5620;53.570;9.718;2023-08-20T17:03:58;45.60;99.90
11132;DHT22;5620;53.570;9.718;2023-08-20T17:06:23;43.40;99.90
11132;DHT22;5620;53.570;9.718;2023-08-20T17:08:49;40.30;99.90
11132;DHT22;5620;53.570;9.718;2023-08-20T17:11:15;37.70;99.90
11132;DHT22;5620;53.570;9.718;2023-08-20T17:13:40;35.70;99.90
11132;DHT22;5620;53.570;9.718;2023-08-20T17:16:06;34.10;1.00
11132;DHT22;5620;53.570;9.718;2023-08-20T17:18:32;32.80;1.00
11132;DHT22;5620;53.570;9.718;2023-08-20T17:20:58;31.80;1.00
11132;DHT22;5620;53.570;9.718;2023-08-20T17:23:24;30.90;1.00
11132;DHT22;5620;53.570;9.718;2023-08-20T17:25:55;30.20;1.00
11132;DHT22;5620;53.570;9.718;2023-08-20T17:28:21;29.50;1.00
11132;DHT22;5620;53.570;9.718;2023-08-20T17:30:46;29.10;1.00
11132;DHT22;5620;53.570;9.718;2023-08-20T17:33:12;28.70;1.00
11132;DHT22;5620;53.570;9.718;2023-08-20T17:35:37;28.40;1.00
11132;DHT22;5620;53.570;9.718;2023-08-20T17:38:03;28.10;1.00
11132;DHT22;5620;53.570;9.718;2023-08-20T17:40:28;27.90;1.00
11132;DHT22;5620;53.570;9.718;2023-08-20T17:42:54;27.80;1.00
11132;DHT22;5620;53.570;9.718;2023-08-20T17:45:19;27.60;1.00
11132;DHT22;5620;53.570;9.718;2023-08-20T17:47:45;27.50;1.00
11132;DHT22;5620;53.570;9.718;2023-08-20T17:50:10;27.30;1.00
11132;DHT22;5620;53.570;9.718;2023-08-20T17:55:02;27.10;1.00
11132;DHT22;5620;53.570;9.718;2023-08-20T17:57:28;26.60;1.00
11132;DHT22;5620;53.570;9.718;2023-08-20T17:59:54;26.40;1.00
11132;DHT22;5620;53.570;9.718;2023-08-20T18:34:01;26.20;1.00
11132;DHT22;5620;53.570;9.718;2023-08-20T18:36:26;23.50;1.00
11132;DHT22;5620;53.570;9.718;2023-08-20T18:38:52;23.30;1.00
11132;DHT22;5620;53.570;9.718;2023-08-20T18:41:19;23.20;1.00
11132;DHT22;5620;53.570;9.718;2023-08-20T18:43:45;23.10;1.00
11132;DHT22;5620;53.570;9.718;2023-08-20T18:46:11;23.00;1.00
11132;DHT22;5620;53.570;9.718;2023-08-20T18:48:38;22.80;1.00
11132;DHT22;5620;53.570;9.718;2023-08-20T18:51:05;22.70;1.00
11132;DHT22;5620;53.570;9.718;2023-08-20T18:53:33;22.60;1.00
11132;DHT22;5620;53.570;9.718;2023-08-20T18:55:59;22.50;1.00